sensor_id;sensor_type;location;lat;lon;timestamp;P1;durP1;ratioP1;P2;durP2;ratioP2
795;SDS011;381;48.770;9.188;2023-11-21T00:00:42;9.00;;;8.07;;
795;SDS011;381;48.770;9.188;2023-11-21T00:05:46;7.20;;;6.60;;
795;SDS011;381;48.770;9.188;2023-11-21T00:10:50;8.20;;;7.40;;
795;SDS011;381;48.770;9.188;2023-11-21T00:15:52;9.40;;;7.60;;
795;SDS011;381;48.770;9.188;2023-11-21T00:20:55;8.67;;;7.90;;
795;SDS011;381;48.770;9.188;2023-11-21T00:26:00;7.87;;;7.30;;
795;SDS011;381;48.770;9.188;2023-11-21T00:31:05;7.27;;;6.57;;
795;SDS011;381;48.770;9.188;2023-11-21T00:36:07;9.03;;;7.57;;
795;SDS011;381;48.770;9.188;2023-11-21T00:41:12;6.47;;;6.00;;
795;SDS011;381;48.770;9.188;2023-11-21T00:46:14;9.23;;;6.30;;
795;SDS011;381;48.770;9.188;2023-11-21T00:51:17;6.80;;;6.10;;
795;SDS011;381;48.770;9.188;2023-11-21T00:56:20;6.67;;;6.07;;
795;SDS011;381;48.770;9.188;2023-11-21T01:01:23;6.20;;;5.70;;
795;SDS011;381;48.770;9.188;2023-11-21T01:06:25;5.97;;;5.40;;
795;SDS011;381;48.770;9.188;2023-11-21T01:11:29;8.60;;;6.80;;
795;SDS011;381;48.770;9.188;2023-11-21T01:16:31;5.50;;;5.20;;
795;SDS011;381;48.770;9.188;2023-11-21T01:21:34;7.80;;;5.80;;
795;SDS011;381;48.770;9.188;2023-11-21T01:26:38;6.83;;;5.60;;
795;SDS011;381;48.770;9.188;2023-11-21T01:31:41;6.50;;;5.27;;
795;SDS011;381;48.770;9.188;2023-11-21T01:36:45;5.50;;;5.20;;
795;SDS011;381;48.770;9.188;2023-11-21T01:41:49;5.53;;;5.13;;
795;SDS011;381;48.770;9.188;2023-11-21T01:46:52;5.57;;;5.17;;
795;SDS011;381;48.770;9.188;2023-11-21T01:51:55;5.50;;;5.10;;
795;SDS011;381;48.770;9.188;2023-11-21T01:56:59;5.27;;;4.87;;
795;SDS011;381;48.770;9.188;2023-11-21T02:02:04;5.00;;;4.67;;
795;SDS011;381;48.770;9.188;2023-11-21T02:07:08;4.60;;;4.40;;
795;SDS011;381;48.770;9.188;2023-11-21T02:12:12;4.70;;;4.40;;
795;SDS011;381;48.770;9.188;2023-11-21T02:17:14;5.30;;;4.90;;
795;SDS011;381;48.770;9.188;2023-11-21T02:22:18;4.80;;;4.47;;
795;SDS011;381;48.770;9.188;2023-11-21T02:27:23;4.10;;;4.00;;
795;SDS011;381;48.770;9.188;2023-11-21T02:32:28;5.13;;;4.73;;
795;SDS011;381;48.770;9.188;2023-11-21T02:37:32;5.00;;;4.60;;
795;SDS011;381;48.770;9.188;2023-11-21T02:42:37;4.67;;;4.37;;
795;SDS011;381;48.770;9.188;2023-11-21T02:47:39;4.87;;;4.57;;
795;SDS011;381;48.770;9.188;2023-11-21T02:52:42;4.50;;;4.20;;
795;SDS011;381;48.770;9.188;2023-11-21T02:57:46;4.90;;;4.50;;
795;SDS011;381;48.770;9.188;2023-11-21T03:02:48;4.47;;;4.17;;
795;SDS011;381;48.770;9.188;2023-11-21T03:07:51;3.93;;;3.83;;
795;SDS011;381;48.770;9.188;2023-11-21T03:12:55;5.20;;;4.30;;
795;SDS011;381;48.770;9.188;2023-11-21T03:17:58;4.10;;;3.90;;
795;SDS011;381;48.770;9.188;2023-11-21T03:23:00;4.80;;;4.20;;
795;SDS011;381;48.770;9.188;2023-11-21T03:28:04;3.90;;;3.70;;
795;SDS011;381;48.770;9.188;2023-11-21T03:33:06;4.13;;;3.93;;
795;SDS011;381;48.770;9.188;2023-11-21T03:38:10;6.33;;;4.90;;
795;SDS011;381;48.770;9.188;2023-11-21T03:43:14;6.47;;;3.93;;
795;SDS011;381;48.770;9.188;2023-11-21T03:48:16;4.03;;;3.90;;
795;SDS011;381;48.770;9.188;2023-11-21T03:53:19;5.50;;;5.10;;
795;SDS011;381;48.770;9.188;2023-11-21T03:58:22;5.73;;;5.10;;
795;SDS011;381;48.770;9.188;2023-11-21T04:03:25;5.20;;;4.80;;
795;SDS011;381;48.770;9.188;2023-11-21T04:08:27;4.57;;;4.37;;
795;SDS011;381;48.770;9.188;2023-11-21T04:13:31;4.80;;;4.50;;
795;SDS011;381;48.770;9.188;2023-11-21T04:18:33;5.00;;;4.80;;
795;SDS011;381;48.770;9.188;2023-11-21T04:23:35;4.87;;;4.63;;
795;SDS011;381;48.770;9.188;2023-11-21T04:28:39;6.20;;;5.80;;
795;SDS011;381;48.770;9.188;2023-11-21T04:33:41;6.30;;;5.90;;
795;SDS011;381;48.770;9.188;2023-11-21T04:38:45;6.83;;;6.43;;
795;SDS011;381;48.770;9.188;2023-11-21T04:43:49;7.83;;;7.43;;
795;SDS011;381;48.770;9.188;2023-11-21T04:48:51;19.37;;;15.97;;
795;SDS011;381;48.770;9.188;2023-11-21T04:53:53;7.10;;;6.70;;
795;SDS011;381;48.770;9.188;2023-11-21T04:58:57;6.53;;;6.33;;
795;SDS011;381;48.770;9.188;2023-11-21T05:03:59;6.73;;;6.53;;
795;SDS011;381;48.770;9.188;2023-11-21T05:09:02;5.40;;;5.20;;
795;SDS011;381;48.770;9.188;2023-11-21T05:14:05;6.87;;;6.47;;
795;SDS011;381;48.770;9.188;2023-11-21T05:19:09;6.77;;;6.50;;
795;SDS011;381;48.770;9.188;2023-11-21T05:24:13;6.43;;;6.13;;
795;SDS011;381;48.770;9.188;2023-11-21T05:29:17;6.33;;;6.07;;
795;SDS011;381;48.770;9.188;2023-11-21T05:34:19;6.90;;;6.40;;
795;SDS011;381;48.770;9.188;2023-11-21T05:39:24;7.20;;;6.80;;
795;SDS011;381;48.770;9.188;2023-11-21T05:44:29;8.67;;;8.07;;
795;SDS011;381;48.770;9.188;2023-11-21T05:49:32;8.93;;;8.43;;
795;SDS011;381;48.770;9.188;2023-11-21T05:54:34;8.90;;;8.40;;
795;SDS011;381;48.770;9.188;2023-11-21T05:59:38;7.57;;;7.17;;
795;SDS011;381;48.770;9.188;2023-11-21T06:04:40;8.83;;;8.23;;
795;SDS011;381;48.770;9.188;2023-11-21T06:09:43;7.77;;;7.27;;
795;SDS011;381;48.770;9.188;2023-11-21T06:14:46;8.77;;;8.27;;
795;SDS011;381;48.770;9.188;2023-11-21T06:19:49;5.10;;;4.80;;
795;SDS011;381;48.770;9.188;2023-11-21T06:24:53;22.30;;;18.23;;
795;SDS011;381;48.770;9.188;2023-11-21T06:29:57;59.50;;;48.57;;
795;SDS011;381;48.770;9.188;2023-11-21T06:34:59;7.07;;;6.57;;
795;SDS011;381;48.770;9.188;2023-11-21T06:40:01;4.07;;;3.80;;
795;SDS011;381;48.770;9.188;2023-11-21T06:45:07;5.40;;;4.97;;
795;SDS011;381;48.770;9.188;2023-11-21T06:50:11;3.03;;;2.93;;
795;SDS011;381;48.770;9.188;2023-11-21T06:55:13;5.27;;;4.90;;
795;SDS011;381;48.770;9.188;2023-11-21T07:00:18;5.90;;;5.57;;
795;SDS011;381;48.770;9.188;2023-11-21T07:05:20;6.10;;;5.60;;
795;SDS011;381;48.770;9.188;2023-11-21T07:10:23;6.93;;;6.47;;
795;SDS011;381;48.770;9.188;2023-11-21T07:15:26;6.40;;;6.00;;
795;SDS011;381;48.770;9.188;2023-11-21T07:20:29;5.60;;;5.30;;
795;SDS011;381;48.770;9.188;2023-11-21T07:25:32;6.87;;;6.47;;
795;SDS011;381;48.770;9.188;2023-11-21T07:30:35;6.00;;;5.80;;
795;SDS011;381;48.770;9.188;2023-11-21T07:35:38;4.37;;;3.93;;
795;SDS011;381;48.770;9.188;2023-11-21T07:40:40;5.73;;;5.43;;
795;SDS011;381;48.770;9.188;2023-11-21T07:45:44;5.50;;;5.20;;
795;SDS011;381;48.770;9.188;2023-11-21T07:50:46;3.30;;;2.90;;
795;SDS011;381;48.770;9.188;2023-11-21T07:55:49;5.77;;;5.30;;
795;SDS011;381;48.770;9.188;2023-11-21T08:00:52;4.90;;;4.70;;
795;SDS011;381;48.770;9.188;2023-11-21T08:05:55;4.40;;;4.20;;
795;SDS011;381;48.770;9.188;2023-11-21T08:10:58;5.10;;;4.90;;
795;SDS011;381;48.770;9.188;2023-11-21T08:16:03;4.70;;;4.40;;
795;SDS011;381;48.770;9.188;2023-11-21T08:21:07;4.80;;;4.60;;
795;SDS011;381;48.770;9.188;2023-11-21T08:26:15;4.60;;;4.40;;
795;SDS011;381;48.770;9.188;2023-11-21T08:31:24;6.57;;;5.97;;
795;SDS011;381;48.770;9.188;2023-11-21T08:36:27;5.47;;;5.10;;
795;SDS011;381;48.770;9.188;2023-11-21T08:41:29;5.30;;;5.00;;
795;SDS011;381;48.770;9.188;2023-11-21T08:46:33;5.20;;;4.90;;
795;SDS011;381;48.770;9.188;2023-11-21T08:51:37;4.70;;;4.40;;
795;SDS011;381;48.770;9.188;2023-11-21T08:56:39;4.50;;;4.30;;
795;SDS011;381;48.770;9.188;2023-11-21T09:01:43;6.07;;;5.67;;
795;SDS011;381;48.770;9.188;2023-11-21T09:06:45;4.43;;;4.23;;
795;SDS011;381;48.770;9.188;2023-11-21T09:11:48;5.00;;;4.70;;
795;SDS011;381;48.770;9.188;2023-11-21T09:16:52;4.87;;;4.47;;
795;SDS011;381;48.770;9.188;2023-11-21T09:21:54;4.53;;;4.33;;
795;SDS011;381;48.770;9.188;2023-11-21T09:26:57;3.80;;;3.70;;
795;SDS011;381;48.770;9.188;2023-11-21T09:32:02;3.97;;;3.80;;
795;SDS011;381;48.770;9.188;2023-11-21T09:37:07;3.57;;;3.47;;
795;SDS011;381;48.770;9.188;2023-11-21T09:42:10;3.73;;;3.53;;
795;SDS011;381;48.770;9.188;2023-11-21T09:47:16;3.13;;;2.90;;
795;SDS011;381;48.770;9.188;2023-11-21T09:52:22;3.47;;;3.37;;
795;SDS011;381;48.770;9.188;2023-11-21T09:57:26;3.13;;;3.03;;
795;SDS011;381;48.770;9.188;2023-11-21T10:02:31;3.90;;;3.60;;
795;SDS011;381;48.770;9.188;2023-11-21T10:07:36;2.83;;;2.73;;
795;SDS011;381;48.770;9.188;2023-11-21T10:12:41;3.17;;;3.07;;
795;SDS011;381;48.770;9.188;2023-11-21T10:17:46;3.47;;;3.27;;
795;SDS011;381;48.770;9.188;2023-11-21T10:22:51;3.70;;;3.50;;
795;SDS011;381;48.770;9.188;2023-11-21T10:27:56;3.20;;;3.10;;
795;SDS011;381;48.770;9.188;2023-11-21T10:33:02;3.00;;;2.80;;
795;SDS011;381;48.770;9.188;2023-11-21T10:38:06;2.63;;;2.53;;
795;SDS011;381;48.770;9.188;2023-11-21T10:43:10;2.30;;;2.27;;
795;SDS011;381;48.770;9.188;2023-11-21T10:48:15;2.70;;;2.60;;
795;SDS011;381;48.770;9.188;2023-11-21T10:53:17;2.73;;;2.63;;
795;SDS011;381;48.770;9.188;2023-11-21T10:58:20;2.70;;;2.60;;
795;SDS011;381;48.770;9.188;2023-11-21T11:03:24;2.20;;;2.10;;
795;SDS011;381;48.770;9.188;2023-11-21T11:08:27;2.60;;;2.50;;
795;SDS011;381;48.770;9.188;2023-11-21T11:13:29;3.20;;;3.10;;
795;SDS011;381;48.770;9.188;2023-11-21T11:18:34;3.20;;;3.00;;
795;SDS011;381;48.770;9.188;2023-11-21T11:29:08;2.60;;;2.50;;
795;SDS011;381;48.770;9.188;2023-11-21T11:34:17;3.03;;;2.80;;
795;SDS011;381;48.770;9.188;2023-11-21T11:39:28;2.83;;;2.73;;
795;SDS011;381;48.770;9.188;2023-11-21T11:44:48;3.23;;;3.03;;
795;SDS011;381;48.770;9.188;2023-11-21T11:49:58;3.20;;;3.00;;
795;SDS011;381;48.770;9.188;2023-11-21T11:55:09;2.70;;;2.60;;
795;SDS011;381;48.770;9.188;2023-11-21T12:00:16;3.87;;;3.27;;
795;SDS011;381;48.770;9.188;2023-11-21T12:05:27;6.13;;;2.80;;
795;SDS011;381;48.770;9.188;2023-11-21T12:10:30;2.63;;;2.53;;
795;SDS011;381;48.770;9.188;2023-11-21T12:15:33;3.00;;;2.90;;
795;SDS011;381;48.770;9.188;2023-11-21T12:20:38;2.77;;;2.67;;
795;SDS011;381;48.770;9.188;2023-11-21T12:25:41;3.30;;;3.10;;
795;SDS011;381;48.770;9.188;2023-11-21T12:30:44;2.90;;;2.80;;
795;SDS011;381;48.770;9.188;2023-11-21T12:35:48;2.97;;;2.87;;
795;SDS011;381;48.770;9.188;2023-11-21T12:40:50;2.70;;;2.60;;
795;SDS011;381;48.770;9.188;2023-11-21T12:46:04;2.67;;;2.57;;
795;SDS011;381;48.770;9.188;2023-11-21T12:51:08;2.57;;;2.47;;
795;SDS011;381;48.770;9.188;2023-11-21T12:56:11;2.57;;;2.47;;
795;SDS011;381;48.770;9.188;2023-11-21T13:01:17;3.23;;;3.13;;
795;SDS011;381;48.770;9.188;2023-11-21T13:06:23;3.10;;;2.93;;
795;SDS011;381;48.770;9.188;2023-11-21T13:11:26;2.70;;;2.50;;
795;SDS011;381;48.770;9.188;2023-11-21T13:16:32;3.63;;;3.43;;
795;SDS011;381;48.770;9.188;2023-11-21T13:21:36;3.40;;;3.20;;
795;SDS011;381;48.770;9.188;2023-11-21T13:26:40;2.93;;;2.83;;
795;SDS011;381;48.770;9.188;2023-11-21T13:31:43;3.10;;;2.80;;
795;SDS011;381;48.770;9.188;2023-11-21T13:36:48;3.90;;;3.80;;
795;SDS011;381;48.770;9.188;2023-11-21T13:41:54;5.63;;;5.37;;
795;SDS011;381;48.770;9.188;2023-11-21T13:46:57;5.30;;;5.07;;
795;SDS011;381;48.770;9.188;2023-11-21T13:52:02;6.00;;;5.70;;
795;SDS011;381;48.770;9.188;2023-11-21T13:57:04;5.90;;;5.70;;
795;SDS011;381;48.770;9.188;2023-11-21T14:02:07;7.33;;;6.83;;
795;SDS011;381;48.770;9.188;2023-11-21T14:07:19;5.47;;;5.13;;
795;SDS011;381;48.770;9.188;2023-11-21T14:12:28;7.37;;;7.07;;
795;SDS011;381;48.770;9.188;2023-11-21T14:17:34;8.10;;;7.60;;
795;SDS011;381;48.770;9.188;2023-11-21T14:22:40;8.00;;;7.50;;
795;SDS011;381;48.770;9.188;2023-11-21T14:27:42;6.80;;;6.07;;
795;SDS011;381;48.770;9.188;2023-11-21T14:32:44;8.60;;;8.10;;
795;SDS011;381;48.770;9.188;2023-11-21T14:37:48;9.10;;;8.57;;
795;SDS011;381;48.770;9.188;2023-11-21T14:42:51;6.93;;;6.43;;
795;SDS011;381;48.770;9.188;2023-11-21T14:47:57;5.83;;;5.33;;
795;SDS011;381;48.770;9.188;2023-11-21T14:53:07;7.30;;;6.90;;
795;SDS011;381;48.770;9.188;2023-11-21T14:58:10;7.43;;;7.13;;
795;SDS011;381;48.770;9.188;2023-11-21T15:03:16;7.43;;;7.03;;
795;SDS011;381;48.770;9.188;2023-11-21T15:08:39;4.40;;;4.20;;
795;SDS011;381;48.770;9.188;2023-11-21T15:13:43;6.60;;;6.10;;
795;SDS011;381;48.770;9.188;2023-11-21T15:18:49;6.10;;;5.80;;
795;SDS011;381;48.770;9.188;2023-11-21T15:23:52;5.33;;;5.03;;
795;SDS011;381;48.770;9.188;2023-11-21T15:28:55;7.80;;;6.60;;
795;SDS011;381;48.770;9.188;2023-11-21T15:33:58;7.60;;;7.20;;
795;SDS011;381;48.770;9.188;2023-11-21T15:39:02;8.20;;;7.50;;
795;SDS011;381;48.770;9.188;2023-11-21T15:44:05;7.60;;;7.10;;
795;SDS011;381;48.770;9.188;2023-11-21T15:49:10;7.53;;;7.00;;
795;SDS011;381;48.770;9.188;2023-11-21T15:54:15;8.27;;;7.77;;
795;SDS011;381;48.770;9.188;2023-11-21T15:59:17;9.60;;;8.70;;
795;SDS011;381;48.770;9.188;2023-11-21T16:04:20;8.77;;;7.97;;
795;SDS011;381;48.770;9.188;2023-11-21T16:09:24;8.97;;;8.20;;
795;SDS011;381;48.770;9.188;2023-11-21T16:14:31;9.20;;;8.60;;
795;SDS011;381;48.770;9.188;2023-11-21T16:19:39;10.30;;;9.40;;
795;SDS011;381;48.770;9.188;2023-11-21T16:24:44;10.50;;;9.73;;
795;SDS011;381;48.770;9.188;2023-11-21T16:29:46;7.50;;;6.80;;
795;SDS011;381;48.770;9.188;2023-11-21T16:34:49;10.13;;;9.23;;
795;SDS011;381;48.770;9.188;2023-11-21T16:39:53;8.60;;;7.90;;
795;SDS011;381;48.770;9.188;2023-11-21T16:44:55;9.53;;;8.73;;
795;SDS011;381;48.770;9.188;2023-11-21T16:49:58;8.63;;;7.87;;
795;SDS011;381;48.770;9.188;2023-11-21T16:55:01;13.30;;;12.20;;
795;SDS011;381;48.770;9.188;2023-11-21T17:00:05;12.30;;;11.20;;
795;SDS011;381;48.770;9.188;2023-11-21T17:05:12;10.67;;;9.57;;
795;SDS011;381;48.770;9.188;2023-11-21T17:10:16;13.23;;;9.97;;
795;SDS011;381;48.770;9.188;2023-11-21T17:15:20;11.37;;;10.47;;
795;SDS011;381;48.770;9.188;2023-11-21T17:20:23;11.40;;;10.57;;
795;SDS011;381;48.770;9.188;2023-11-21T17:25:28;13.50;;;12.30;;
795;SDS011;381;48.770;9.188;2023-11-21T17:30:31;14.20;;;13.00;;
795;SDS011;381;48.770;9.188;2023-11-21T17:35:33;15.87;;;14.37;;
795;SDS011;381;48.770;9.188;2023-11-21T17:40:37;14.47;;;13.37;;
795;SDS011;381;48.770;9.188;2023-11-21T17:45:39;15.13;;;13.93;;
795;SDS011;381;48.770;9.188;2023-11-21T17:50:42;18.10;;;16.40;;
795;SDS011;381;48.770;9.188;2023-11-21T17:55:46;16.80;;;15.17;;
795;SDS011;381;48.770;9.188;2023-11-21T18:00:48;16.10;;;14.80;;
795;SDS011;381;48.770;9.188;2023-11-21T18:05:51;15.17;;;13.87;;
795;SDS011;381;48.770;9.188;2023-11-21T18:10:55;17.53;;;15.00;;
795;SDS011;381;48.770;9.188;2023-11-21T18:16:00;15.80;;;14.50;;
795;SDS011;381;48.770;9.188;2023-11-21T18:21:02;16.00;;;14.40;;
795;SDS011;381;48.770;9.188;2023-11-21T18:26:06;16.70;;;15.07;;
795;SDS011;381;48.770;9.188;2023-11-21T18:31:09;14.30;;;13.00;;
795;SDS011;381;48.770;9.188;2023-11-21T18:36:11;16.03;;;14.40;;
795;SDS011;381;48.770;9.188;2023-11-21T18:41:24;15.10;;;13.70;;
795;SDS011;381;48.770;9.188;2023-11-21T18:46:27;12.47;;;11.40;;
795;SDS011;381;48.770;9.188;2023-11-21T18:51:30;13.13;;;11.77;;
795;SDS011;381;48.770;9.188;2023-11-21T18:56:35;14.13;;;12.27;;
795;SDS011;381;48.770;9.188;2023-11-21T19:01:47;15.80;;;14.40;;
795;SDS011;381;48.770;9.188;2023-11-21T19:06:54;16.93;;;14.03;;
795;SDS011;381;48.770;9.188;2023-11-21T19:12:01;15.10;;;13.80;;
795;SDS011;381;48.770;9.188;2023-11-21T19:17:04;14.33;;;13.20;;
795;SDS011;381;48.770;9.188;2023-11-21T19:22:07;14.93;;;13.30;;
795;SDS011;381;48.770;9.188;2023-11-21T19:27:14;14.40;;;12.87;;
795;SDS011;381;48.770;9.188;2023-11-21T19:32:16;13.73;;;12.33;;
795;SDS011;381;48.770;9.188;2023-11-21T19:37:18;14.70;;;13.33;;
795;SDS011;381;48.770;9.188;2023-11-21T19:42:23;13.63;;;12.50;;
795;SDS011;381;48.770;9.188;2023-11-21T19:47:25;14.07;;;12.77;;
795;SDS011;381;48.770;9.188;2023-11-21T19:52:28;14.53;;;13.33;;
795;SDS011;381;48.770;9.188;2023-11-21T19:57:31;15.63;;;13.03;;
795;SDS011;381;48.770;9.188;2023-11-21T20:02:34;14.27;;;12.97;;
795;SDS011;381;48.770;9.188;2023-11-21T20:07:36;13.70;;;12.30;;
795;SDS011;381;48.770;9.188;2023-11-21T20:12:40;13.80;;;12.60;;
795;SDS011;381;48.770;9.188;2023-11-21T20:17:42;15.50;;;14.10;;
795;SDS011;381;48.770;9.188;2023-11-21T20:22:45;15.37;;;13.83;;
795;SDS011;381;48.770;9.188;2023-11-21T20:27:50;16.57;;;14.83;;
795;SDS011;381;48.770;9.188;2023-11-21T20:32:52;17.50;;;13.23;;
795;SDS011;381;48.770;9.188;2023-11-21T20:37:54;13.73;;;12.53;;
795;SDS011;381;48.770;9.188;2023-11-21T20:42:58;14.23;;;12.03;;
795;SDS011;381;48.770;9.188;2023-11-21T20:48:03;15.77;;;13.53;;
795;SDS011;381;48.770;9.188;2023-11-21T20:53:09;14.23;;;12.73;;
795;SDS011;381;48.770;9.188;2023-11-21T20:58:17;13.30;;;11.97;;
795;SDS011;381;48.770;9.188;2023-11-21T21:03:20;15.40;;;12.23;;
795;SDS011;381;48.770;9.188;2023-11-21T21:08:24;13.50;;;12.30;;
795;SDS011;381;48.770;9.188;2023-11-21T21:13:28;14.13;;;12.70;;
795;SDS011;381;48.770;9.188;2023-11-21T21:18:32;13.80;;;12.50;;
795;SDS011;381;48.770;9.188;2023-11-21T21:23:40;15.87;;;14.23;;
795;SDS011;381;48.770;9.188;2023-11-21T21:28:49;17.47;;;12.50;;
795;SDS011;381;48.770;9.188;2023-11-21T21:33:54;14.20;;;12.90;;
795;SDS011;381;48.770;9.188;2023-11-21T21:38:58;14.80;;;12.60;;
795;SDS011;381;48.770;9.188;2023-11-21T21:44:02;17.03;;;13.60;;
795;SDS011;381;48.770;9.188;2023-11-21T21:49:08;17.17;;;14.43;;
795;SDS011;381;48.770;9.188;2023-11-21T21:54:12;16.00;;;14.47;;
795;SDS011;381;48.770;9.188;2023-11-21T21:59:16;17.77;;;13.80;;
795;SDS011;381;48.770;9.188;2023-11-21T22:04:18;17.00;;;13.90;;
795;SDS011;381;48.770;9.188;2023-11-21T22:09:21;15.00;;;13.57;;
795;SDS011;381;48.770;9.188;2023-11-21T22:14:25;17.67;;;15.00;;
795;SDS011;381;48.770;9.188;2023-11-21T22:19:30;15.17;;;13.60;;
795;SDS011;381;48.770;9.188;2023-11-21T22:24:36;15.87;;;14.23;;
795;SDS011;381;48.770;9.188;2023-11-21T22:29:40;16.33;;;14.30;;
795;SDS011;381;48.770;9.188;2023-11-21T22:34:43;14.60;;;13.10;;
795;SDS011;381;48.770;9.188;2023-11-21T22:39:49;14.97;;;13.57;;
795;SDS011;381;48.770;9.188;2023-11-21T22:44:54;16.73;;;13.90;;
795;SDS011;381;48.770;9.188;2023-11-21T22:49:56;14.87;;;13.47;;
795;SDS011;381;48.770;9.188;2023-11-21T22:54:59;16.63;;;12.87;;
795;SDS011;381;48.770;9.188;2023-11-21T23:00:06;15.27;;;12.73;;
795;SDS011;381;48.770;9.188;2023-11-21T23:05:12;16.37;;;13.13;;
795;SDS011;381;48.770;9.188;2023-11-21T23:10:16;14.93;;;13.33;;
795;SDS011;381;48.770;9.188;2023-11-21T23:15:19;16.30;;;13.97;;
795;SDS011;381;48.770;9.188;2023-11-21T23:20:22;14.73;;;13.33;;
795;SDS011;381;48.770;9.188;2023-11-21T23:25:26;14.90;;;13.40;;
795;SDS011;381;48.770;9.188;2023-11-21T23:30:29;13.97;;;12.47;;
795;SDS011;381;48.770;9.188;2023-11-21T23:35:32;15.00;;;13.37;;
795;SDS011;381;48.770;9.188;2023-11-21T23:40:34;13.73;;;12.47;;
795;SDS011;381;48.770;9.188;2023-11-21T23:45:38;13.73;;;12.33;;
795;SDS011;381;48.770;9.188;2023-11-21T23:50:40;12.90;;;11.67;;
795;SDS011;381;48.770;9.188;2023-11-21T23:55:43;14.80;;;12.20;;
